createdAt,value
2022-09-07T00:00:53.025Z,977.55
2022-09-07T00:01:53.012Z,977.60
2022-09-07T00:02:53.051Z,977.57
2022-09-07T00:03:53.037Z,977.59
2022-09-07T00:04:52.976Z,977.62
2022-09-07T00:05:52.945Z,977.53
2022-09-07T00:06:52.970Z,977.45
2022-09-07T00:07:52.922Z,977.47
2022-09-07T00:08:52.925Z,977.42
2022-09-07T00:09:52.904Z,977.42
2022-09-07T00:10:52.940Z,977.47
2022-09-07T00:11:52.869Z,977.42
2022-09-07T00:12:52.859Z,977.43
2022-09-07T00:13:52.867Z,977.41
2022-09-07T00:14:52.847Z,977.44
2022-09-07T00:15:52.859Z,977.47
2022-09-07T00:16:52.821Z,977.41
2022-09-07T00:17:52.797Z,977.45
2022-09-07T00:18:52.803Z,977.46
2022-09-07T00:19:52.777Z,977.50
2022-09-07T00:20:52.793Z,977.42
2022-09-07T00:21:52.726Z,977.49
2022-09-07T00:22:52.730Z,977.50
2022-09-07T00:23:52.735Z,977.47
2022-09-07T00:24:52.713Z,977.46
2022-09-07T00:25:54.245Z,977.46
2022-09-07T00:26:52.680Z,977.45
2022-09-07T00:27:52.659Z,977.42
2022-09-07T00:28:52.652Z,977.47
2022-09-07T00:29:52.642Z,977.47
2022-09-07T00:30:52.622Z,977.50
2022-09-07T00:31:52.658Z,977.49
2022-09-07T00:32:52.605Z,977.48
2022-09-07T00:33:52.612Z,977.45
2022-09-07T00:34:52.575Z,977.46
2022-09-07T00:35:52.571Z,977.50
2022-09-07T00:36:52.543Z,977.54
2022-09-07T00:37:52.536Z,977.48
2022-09-07T00:38:52.541Z,977.47
2022-09-07T00:39:52.599Z,977.48
2022-09-07T00:40:52.506Z,977.57
2022-09-07T00:41:52.484Z,977.52
2022-09-07T00:42:52.462Z,977.55
2022-09-07T00:43:52.474Z,977.58
2022-09-07T00:44:52.449Z,977.62
2022-09-07T00:45:52.444Z,977.62
2022-09-07T00:46:52.456Z,977.55
2022-09-07T00:47:52.408Z,977.52
2022-09-07T00:48:52.424Z,977.58
2022-09-07T00:49:52.396Z,977.55
2022-09-07T00:50:52.379Z,977.59
2022-09-07T00:51:52.357Z,977.63
2022-09-07T00:52:52.355Z,977.60
2022-09-07T00:53:52.408Z,977.61
2022-09-07T00:54:52.346Z,977.63
2022-09-07T00:55:52.311Z,977.64
2022-09-07T00:56:52.288Z,977.61
2022-09-07T00:57:52.301Z,977.65
2022-09-07T00:58:52.327Z,977.65
2022-09-07T00:59:52.258Z,977.69
2022-09-07T01:00:52.238Z,977.62
2022-09-07T01:01:52.370Z,977.67
2022-09-07T01:02:52.327Z,977.69
2022-09-07T01:03:52.207Z,977.70
2022-09-07T01:04:52.199Z,977.73
2022-09-07T01:05:52.181Z,977.76
2022-09-07T01:06:52.166Z,977.77
2022-09-07T01:07:52.141Z,977.76
2022-09-07T01:08:52.142Z,977.81
2022-09-07T01:09:52.152Z,977.73
2022-09-07T01:10:52.114Z,977.76
2022-09-07T01:11:52.081Z,977.73
2022-09-07T01:12:52.064Z,977.64
2022-09-07T01:13:52.060Z,977.72
2022-09-07T01:14:52.082Z,977.64
2022-09-07T01:15:52.123Z,977.69
2022-09-07T01:16:52.011Z,977.66
2022-09-07T01:17:52.041Z,977.59
2022-09-07T01:18:51.992Z,977.64
2022-09-07T01:19:52.035Z,977.58
2022-09-07T01:20:51.972Z,977.54
2022-09-07T01:21:51.963Z,977.62
2022-09-07T01:22:51.952Z,977.57
2022-09-07T01:23:51.944Z,977.61
2022-09-07T01:24:51.934Z,977.59
2022-09-07T01:25:51.913Z,977.59
2022-09-07T01:26:51.883Z,977.60
2022-09-07T01:27:51.915Z,977.61
2022-09-07T01:28:51.882Z,977.59
2022-09-07T01:29:51.881Z,977.61
2022-09-07T01:30:52.851Z,977.56
2022-09-07T01:31:51.855Z,977.54
2022-09-07T01:32:51.836Z,977.52
2022-09-07T01:33:51.795Z,977.53
2022-09-07T01:34:51.808Z,977.51
2022-09-07T01:35:51.786Z,977.55
2022-09-07T01:36:51.756Z,977.57
2022-09-07T01:37:56.330Z,977.59
2022-09-07T01:38:52.757Z,977.60
2022-09-07T01:39:51.781Z,977.61
2022-09-07T01:40:51.715Z,977.62
2022-09-07T01:41:51.708Z,977.64
2022-09-07T01:42:51.687Z,977.56
2022-09-07T01:43:51.685Z,977.57
2022-09-07T01:44:51.697Z,977.61
2022-09-07T01:45:51.667Z,977.55
2022-09-07T01:46:51.633Z,977.55
2022-09-07T01:47:51.628Z,977.55
2022-09-07T01:48:51.657Z,977.51
2022-09-07T01:49:51.591Z,977.52
2022-09-07T01:50:51.599Z,977.56
2022-09-07T01:51:51.569Z,977.49
2022-09-07T01:52:51.559Z,977.52
2022-09-07T01:53:51.553Z,977.53
2022-09-07T01:54:51.569Z,977.49
2022-09-07T01:55:51.520Z,977.49
2022-09-07T01:56:51.509Z,977.50
2022-09-07T01:57:51.508Z,977.52
2022-09-07T01:58:51.492Z,977.54
2022-09-07T01:59:51.470Z,977.53
2022-09-07T02:00:51.451Z,977.45
2022-09-07T02:01:51.507Z,977.44
2022-09-07T02:02:51.463Z,977.49
2022-09-07T02:03:51.421Z,977.54
2022-09-07T02:04:51.441Z,977.43
2022-09-07T02:05:51.392Z,977.45
2022-09-07T02:06:51.370Z,977.43
2022-09-07T02:07:51.378Z,977.38
2022-09-07T02:08:51.352Z,977.41
2022-09-07T02:09:51.357Z,977.41
2022-09-07T02:10:51.340Z,977.32
2022-09-07T02:11:51.332Z,977.40
2022-09-07T02:12:51.305Z,977.38
2022-09-07T02:13:51.300Z,977.31
2022-09-07T02:14:52.860Z,977.39
2022-09-07T02:15:51.358Z,977.36
2022-09-07T02:16:51.255Z,977.34
2022-09-07T02:17:51.247Z,977.36
2022-09-07T02:18:51.217Z,977.37
2022-09-07T02:19:51.232Z,977.39
2022-09-07T02:20:51.194Z,977.46
2022-09-07T02:21:51.174Z,977.44
2022-09-07T02:22:51.168Z,977.42
2022-09-07T02:23:51.156Z,977.45
2022-09-07T02:24:51.167Z,977.44
2022-09-07T02:25:51.127Z,977.42
2022-09-07T02:26:51.116Z,977.43
2022-09-07T02:27:51.113Z,977.51
2022-09-07T02:28:51.096Z,977.54
2022-09-07T02:29:51.099Z,977.51
2022-09-07T02:30:51.110Z,977.51
2022-09-07T02:31:51.088Z,977.51
2022-09-07T02:32:51.034Z,977.52
2022-09-07T02:33:51.044Z,977.60
2022-09-07T02:34:51.050Z,977.54
2022-09-07T02:35:51.008Z,977.52
2022-09-07T02:36:50.986Z,977.53
2022-09-07T02:37:50.990Z,977.61
2022-09-07T02:38:50.959Z,977.60
2022-09-07T02:39:51.043Z,977.55
2022-09-07T02:40:50.949Z,977.59
2022-09-07T02:41:50.938Z,977.50
2022-09-07T02:42:50.908Z,977.57
2022-09-07T02:43:50.915Z,977.62
2022-09-07T02:44:50.900Z,977.63
2022-09-07T02:45:50.896Z,977.57
2022-09-07T02:46:50.861Z,977.56
2022-09-07T02:47:50.851Z,977.55
2022-09-07T02:48:50.829Z,977.54
2022-09-07T02:49:50.842Z,977.49
2022-09-07T02:50:50.817Z,977.52
2022-09-07T02:51:50.809Z,977.58
2022-09-07T02:52:50.794Z,977.59
2022-09-07T02:53:50.791Z,977.61
2022-09-07T02:54:50.780Z,977.61
2022-09-07T02:55:50.780Z,977.64
2022-09-07T02:56:50.968Z,977.64
2022-09-07T02:57:50.797Z,977.63
2022-09-07T02:58:50.814Z,977.63
2022-09-07T02:59:50.762Z,977.61
2022-09-07T03:00:50.737Z,977.56
2022-09-07T03:01:50.752Z,977.60
2022-09-07T03:02:50.698Z,977.61
2022-09-07T03:03:50.753Z,977.61
2022-09-07T03:04:50.689Z,977.63
2022-09-07T03:05:50.613Z,977.62
2022-09-07T03:06:50.664Z,977.59
2022-09-07T03:07:50.595Z,977.60
2022-09-07T03:08:50.667Z,977.61
2022-09-07T03:09:50.602Z,977.53
2022-09-07T03:10:50.585Z,977.56
2022-09-07T03:11:50.538Z,977.57
2022-09-07T03:12:50.592Z,977.53
2022-09-07T03:13:50.734Z,977.54
2022-09-07T03:14:50.538Z,977.51
2022-09-07T03:15:55.572Z,977.48
2022-09-07T03:16:51.548Z,977.56
2022-09-07T03:17:50.547Z,977.50
2022-09-07T03:18:50.535Z,977.50
2022-09-07T03:19:53.759Z,977.43
2022-09-07T03:20:50.450Z,977.42
2022-09-07T03:21:50.455Z,977.41
2022-09-07T03:22:50.457Z,977.39
2022-09-07T03:23:51.937Z,977.44
2022-09-07T03:24:50.388Z,977.36
2022-09-07T03:25:50.358Z,977.40
2022-09-07T03:26:50.423Z,977.33
2022-09-07T03:27:50.332Z,977.31
2022-09-07T03:28:50.318Z,977.37
2022-09-07T03:29:50.332Z,977.29
2022-09-07T03:30:50.393Z,977.33
2022-09-07T03:31:50.282Z,977.29
2022-09-07T03:32:50.332Z,977.34
2022-09-07T03:33:50.339Z,977.33
2022-09-07T03:34:50.368Z,977.32
2022-09-07T03:35:50.289Z,977.30
2022-09-07T03:36:50.221Z,977.38
2022-09-07T03:37:50.271Z,977.38
2022-09-07T03:38:50.282Z,977.39
2022-09-07T03:39:50.269Z,977.41
2022-09-07T03:40:50.196Z,977.43
2022-09-07T03:41:52.854Z,977.45
2022-09-07T03:44:00.366Z,977.47
2022-09-07T03:45:00.457Z,977.45
2022-09-07T03:46:00.426Z,977.51
2022-09-07T03:47:00.366Z,977.50
2022-09-07T03:48:00.357Z,977.51
2022-09-07T03:49:01.317Z,977.62
2022-09-07T03:50:00.414Z,977.60
2022-09-07T04:03:40.802Z,977.42
2022-09-07T04:04:40.789Z,977.44
2022-09-07T04:05:40.759Z,977.37
2022-09-07T04:06:40.754Z,977.36
2022-09-07T04:07:40.759Z,977.36
2022-09-07T04:08:40.719Z,977.35
2022-09-07T04:09:40.745Z,977.36
2022-09-07T04:10:40.690Z,977.41
2022-09-07T04:11:40.693Z,977.45
2022-09-07T04:12:40.672Z,977.45
2022-09-07T04:13:40.675Z,977.42
2022-09-07T04:14:40.665Z,977.39
2022-09-07T04:15:40.632Z,977.37
2022-09-07T04:16:48.181Z,977.39
2022-09-07T04:17:40.611Z,977.40
2022-09-07T04:18:40.602Z,977.30
2022-09-07T04:19:40.598Z,977.33
2022-09-07T04:20:40.573Z,977.35
2022-09-07T04:21:40.574Z,977.29
2022-09-07T04:22:40.562Z,977.29
2022-09-07T04:23:40.540Z,977.37
2022-09-07T04:24:40.522Z,977.34
2022-09-07T04:25:40.529Z,977.33
2022-09-07T04:26:40.492Z,977.38
2022-09-07T04:27:41.473Z,977.42
2022-09-07T04:28:40.472Z,977.43
2022-09-07T04:29:40.482Z,977.45
2022-09-07T04:30:40.476Z,977.43
2022-09-07T04:31:40.435Z,977.41
2022-09-07T04:32:40.413Z,977.50
2022-09-07T04:33:40.457Z,977.45
2022-09-07T04:34:40.416Z,977.42
2022-09-07T04:35:40.375Z,977.36
2022-09-07T04:36:40.373Z,977.44
2022-09-07T04:37:40.335Z,977.39
2022-09-07T04:38:40.327Z,977.32
2022-09-07T04:39:40.421Z,977.39
2022-09-07T04:40:40.305Z,977.40
2022-09-07T04:41:40.296Z,977.38
2022-09-07T04:42:40.308Z,977.39
2022-09-07T04:43:40.284Z,977.44
2022-09-07T04:44:40.267Z,977.50
2022-09-07T04:45:40.270Z,977.47
2022-09-07T04:46:40.218Z,977.49
2022-09-07T04:47:40.228Z,977.47
2022-09-07T04:48:40.212Z,977.51
2022-09-07T04:49:40.205Z,977.53
2022-09-07T04:50:40.178Z,977.48
2022-09-07T04:51:40.169Z,977.57
2022-09-07T04:52:40.177Z,977.60
2022-09-07T04:53:40.138Z,977.63
2022-09-07T04:54:40.139Z,977.69
2022-09-07T04:55:40.109Z,977.68
2022-09-07T04:56:40.099Z,977.71
2022-09-07T04:57:40.092Z,977.73
2022-09-07T04:58:40.103Z,977.74
2022-09-07T04:59:40.068Z,977.75
2022-09-07T05:00:40.068Z,977.65
2022-09-07T05:01:40.065Z,977.76
2022-09-07T05:02:40.099Z,977.71
2022-09-07T05:03:40.056Z,977.70
2022-09-07T05:04:40.032Z,977.70
2022-09-07T05:05:39.991Z,977.74
2022-09-07T05:06:40.066Z,977.66
2022-09-07T05:07:39.967Z,977.65
2022-09-07T05:08:39.981Z,977.63
2022-09-07T05:09:40.018Z,977.63
2022-09-07T05:10:39.912Z,977.64
2022-09-07T05:11:39.911Z,977.71
2022-09-07T05:12:39.911Z,977.64
2022-09-07T05:13:39.892Z,977.66
2022-09-07T05:14:39.883Z,977.70
2022-09-07T05:15:39.865Z,977.76
2022-09-07T05:16:39.879Z,977.72
2022-09-07T05:17:39.854Z,977.82
2022-09-07T05:18:39.835Z,977.80
2022-09-07T05:19:39.835Z,977.87
2022-09-07T05:20:39.792Z,977.86
2022-09-07T05:21:39.784Z,977.89
2022-09-07T05:22:39.786Z,977.89
2022-09-07T05:23:40.754Z,977.92
2022-09-07T05:24:39.745Z,977.91
2022-09-07T05:25:39.758Z,977.87
2022-09-07T05:26:39.718Z,977.92
2022-09-07T05:27:39.705Z,977.93
2022-09-07T05:28:40.725Z,977.91
2022-09-07T05:31:40.676Z,977.98
2022-09-07T05:32:39.636Z,977.91
2022-09-07T05:34:40.648Z,977.91
2022-09-07T05:35:39.629Z,977.91
2022-09-07T05:36:39.598Z,977.86
2022-09-07T05:37:39.567Z,977.85
2022-09-07T05:38:40.574Z,977.86
2022-09-07T05:39:39.620Z,977.79
2022-09-07T05:40:40.810Z,977.80
2022-09-07T05:41:39.531Z,977.82
2022-09-07T05:42:39.507Z,977.75
2022-09-07T05:44:43.931Z,977.80
2022-09-07T05:45:39.536Z,977.83
2022-09-07T05:46:39.458Z,977.80
2022-09-07T05:47:39.452Z,977.86
2022-09-07T05:48:39.449Z,977.88
2022-09-07T05:49:39.420Z,977.84
2022-09-07T05:50:39.443Z,977.84
2022-09-07T05:51:39.398Z,977.83
2022-09-07T05:52:39.370Z,977.79
2022-09-07T05:53:39.379Z,977.75
2022-09-07T05:54:39.340Z,977.79
2022-09-07T05:55:39.342Z,977.81
2022-09-07T05:56:39.335Z,977.83
2022-09-07T05:57:39.314Z,977.75
2022-09-07T05:58:40.337Z,977.76
2022-09-07T05:59:39.319Z,977.65
2022-09-07T06:00:39.287Z,977.65
2022-09-07T06:01:39.334Z,977.66
2022-09-07T06:02:39.984Z,977.72
2022-09-07T06:03:39.334Z,977.74
2022-09-07T06:04:39.244Z,977.79
2022-09-07T06:05:39.213Z,977.81
2022-09-07T06:06:39.205Z,977.85
2022-09-07T06:07:39.186Z,977.82
2022-09-07T06:08:39.174Z,977.76
2022-09-07T06:11:39.134Z,977.73
2022-09-07T06:12:39.132Z,977.77
2022-09-07T06:13:39.115Z,977.75
2022-09-07T06:14:39.108Z,977.73
2022-09-07T06:15:39.107Z,977.73
2022-09-07T06:16:39.206Z,977.68
2022-09-07T06:17:39.056Z,977.75
2022-09-07T06:18:39.054Z,977.65
2022-09-07T06:19:40.027Z,977.62
2022-09-07T06:20:39.017Z,977.65
2022-09-07T06:21:39.017Z,977.68
2022-09-07T06:22:39.018Z,977.78
2022-09-07T06:23:38.998Z,977.70
2022-09-07T06:24:38.966Z,977.65
2022-09-07T06:25:38.968Z,977.63
2022-09-07T06:26:38.927Z,977.70
2022-09-07T06:27:38.927Z,977.60
2022-09-07T06:28:38.952Z,977.64
2022-09-07T06:29:39.918Z,977.69
2022-09-07T06:30:38.898Z,977.73
2022-09-07T06:32:43.028Z,977.73
2022-09-07T06:33:38.880Z,977.72
2022-09-07T06:34:39.852Z,977.68
2022-09-07T06:35:38.850Z,977.74
2022-09-07T06:36:38.822Z,977.67
2022-09-07T06:37:38.802Z,977.70
2022-09-07T06:38:38.801Z,977.68
2022-09-07T06:39:38.854Z,977.63
2022-09-07T06:40:38.750Z,977.65
2022-09-07T06:42:39.736Z,977.70
2022-09-07T06:43:42.849Z,977.71
2022-09-07T06:44:39.741Z,977.67
2022-09-07T06:45:38.734Z,977.70
2022-09-07T06:47:39.672Z,977.72
2022-09-07T06:48:42.495Z,977.75
2022-09-07T06:49:39.653Z,977.77
2022-09-07T06:50:38.633Z,977.76
2022-09-07T06:51:38.647Z,977.79
2022-09-07T06:53:41.858Z,977.80
2022-09-07T06:55:39.573Z,977.75
2022-09-07T06:56:38.563Z,977.82
2022-09-07T06:57:38.564Z,977.84
2022-09-07T06:58:42.317Z,977.83
2022-09-07T06:59:38.520Z,977.80
2022-09-07T07:00:38.528Z,977.81
2022-09-07T07:01:38.505Z,977.77
2022-09-07T07:02:38.465Z,977.76
2022-09-07T07:03:38.558Z,977.65
2022-09-07T07:04:41.009Z,977.70
2022-09-07T07:05:39.460Z,977.65
2022-09-07T07:06:38.436Z,977.66
2022-09-07T07:07:38.423Z,977.60
2022-09-07T07:08:38.397Z,977.62
2022-09-07T07:09:38.397Z,977.63
2022-09-07T07:10:38.367Z,977.66
2022-09-07T07:11:38.398Z,977.72
2022-09-07T07:13:09.363Z,977.70
2022-09-07T07:14:09.352Z,977.74
2022-09-07T07:15:09.326Z,977.73
2022-09-07T07:16:09.379Z,977.71
2022-09-07T07:17:09.339Z,977.68
2022-09-07T07:18:20.925Z,977.66
2022-09-07T07:19:10.297Z,977.66
2022-09-07T07:20:09.323Z,977.60
2022-09-07T07:21:09.274Z,977.61
2022-09-07T07:22:45.740Z,977.59
2022-09-07T07:23:10.246Z,977.57
2022-09-07T07:24:09.248Z,977.52
2022-09-07T07:25:09.211Z,977.53
2022-09-07T07:26:09.208Z,977.56
2022-09-07T07:27:09.177Z,977.50
2022-09-07T07:29:10.171Z,977.57
2022-09-07T07:30:09.144Z,977.48
2022-09-07T07:31:12.930Z,977.53
2022-09-07T07:32:09.118Z,977.50
2022-09-07T07:33:09.178Z,977.54
2022-09-07T07:34:09.134Z,977.57
2022-09-07T07:35:09.071Z,977.62
2022-09-07T07:36:10.070Z,977.66
2022-09-07T07:37:09.103Z,977.69
2022-09-07T07:40:19.784Z,977.69
2022-09-07T07:42:09.984Z,977.70
2022-09-07T07:43:08.991Z,977.68
2022-09-07T07:44:08.962Z,977.66
2022-09-07T07:46:10.005Z,977.75
2022-09-07T07:47:08.941Z,977.73
2022-09-07T07:48:08.913Z,977.73
2022-09-07T07:49:08.903Z,977.78
2022-09-07T07:51:12.098Z,977.69
2022-09-07T07:54:09.845Z,977.71
2022-09-07T07:56:09.816Z,977.81
2022-09-07T07:57:09.813Z,977.81
2022-09-07T07:58:08.797Z,977.87
2022-09-07T07:59:12.566Z,977.90
2022-09-07T08:00:09.776Z,977.95
2022-09-07T08:01:08.795Z,977.92
2022-09-07T08:02:09.984Z,977.99
2022-09-07T08:03:08.745Z,978.00
2022-09-07T08:04:08.717Z,977.97
2022-09-07T08:05:08.687Z,977.96
2022-09-07T08:06:08.686Z,977.98
2022-09-07T08:07:11.005Z,977.98
2022-09-07T08:08:08.657Z,977.94
2022-09-07T08:09:08.658Z,977.92
2022-09-07T08:10:08.643Z,977.85
2022-09-07T08:11:08.632Z,977.87
2022-09-07T08:12:09.611Z,977.84
2022-09-07T08:13:08.599Z,977.87
2022-09-07T08:14:08.669Z,977.88
2022-09-07T08:15:08.589Z,977.89
2022-09-07T08:16:08.587Z,977.91
2022-09-07T08:17:08.603Z,977.83
2022-09-07T08:18:09.550Z,977.90
2022-09-07T08:19:08.530Z,977.92
2022-09-07T08:20:08.502Z,977.95
2022-09-07T08:21:08.503Z,977.87
2022-09-07T08:22:08.499Z,977.83
2022-09-07T08:23:09.637Z,977.89
2022-09-07T08:24:08.473Z,977.84
2022-09-07T08:25:08.452Z,977.85
2022-09-07T08:26:08.465Z,977.86
2022-09-07T08:27:08.440Z,977.84
2022-09-07T08:28:08.448Z,977.89
2022-09-07T08:29:08.413Z,977.93
2022-09-07T08:30:08.392Z,977.91
2022-09-07T08:31:08.413Z,977.95
2022-09-07T08:32:08.374Z,978.00
2022-09-07T08:33:10.373Z,977.95
2022-09-07T08:34:08.344Z,977.96
2022-09-07T08:35:08.344Z,978.00
2022-09-07T08:36:08.366Z,978.06
2022-09-07T08:37:08.296Z,978.03
2022-09-07T08:38:08.303Z,978.07
2022-09-07T08:39:08.321Z,978.20
2022-09-07T08:40:08.373Z,978.19
2022-09-07T08:41:08.266Z,978.18
2022-09-07T08:42:08.245Z,978.15
2022-09-07T08:43:08.241Z,978.16
2022-09-07T08:44:08.250Z,978.18
2022-09-07T08:45:09.198Z,978.19
2022-09-07T08:46:08.215Z,978.21
2022-09-07T08:47:08.193Z,978.23
2022-09-07T08:48:08.200Z,978.15
2022-09-07T08:49:08.177Z,978.19
2022-09-07T08:50:08.139Z,978.19
2022-09-07T08:51:08.133Z,978.20
2022-09-07T08:52:08.187Z,978.17
2022-09-07T08:53:08.109Z,978.22
2022-09-07T08:54:08.099Z,978.21
2022-09-07T08:55:08.103Z,978.24
2022-09-07T08:56:08.080Z,978.26
2022-09-07T08:57:23.440Z,978.24
2022-09-07T08:58:18.126Z,978.23
2022-09-07T08:59:09.040Z,978.24
2022-09-07T09:00:08.030Z,978.27
2022-09-07T09:04:17.247Z,978.26
2022-09-07T09:05:17.445Z,978.23
2022-09-07T09:06:09.047Z,978.23
2022-09-07T09:07:08.062Z,978.17
2022-09-07T09:08:07.909Z,978.16
2022-09-07T09:09:08.903Z,978.12
2022-09-07T09:10:07.873Z,978.19
2022-09-07T09:11:07.865Z,978.16
2022-09-07T09:12:07.855Z,978.14
2022-09-07T09:13:07.865Z,978.08
2022-09-07T09:14:07.824Z,978.08
2022-09-07T09:15:07.815Z,978.14
2022-09-07T09:16:07.864Z,978.15
2022-09-07T09:17:07.797Z,978.10
2022-09-07T09:18:10.115Z,978.16
2022-09-07T09:19:08.746Z,978.15
2022-09-07T09:20:07.766Z,978.14
2022-09-07T09:21:07.755Z,978.08
2022-09-07T09:22:07.714Z,978.17
2022-09-07T09:23:07.707Z,978.12
2022-09-07T09:24:07.696Z,978.11
2022-09-07T09:25:07.689Z,978.07
2022-09-07T09:26:07.667Z,978.06
2022-09-07T09:27:07.657Z,978.03
2022-09-07T09:28:07.630Z,977.96
2022-09-07T09:29:07.668Z,977.95
2022-09-07T09:30:07.613Z,977.94
2022-09-07T09:31:07.646Z,977.94
2022-09-07T09:32:07.589Z,977.87
2022-09-07T09:33:07.558Z,977.90
2022-09-07T09:34:07.570Z,977.92
2022-09-07T09:35:08.569Z,977.88
2022-09-07T09:36:07.531Z,977.87
2022-09-07T09:37:07.522Z,977.92
2022-09-07T09:38:07.505Z,977.87
2022-09-07T09:39:07.494Z,977.88
2022-09-07T09:40:07.545Z,977.94
2022-09-07T09:41:08.472Z,977.97
2022-09-07T09:42:07.451Z,977.97
2022-09-07T09:43:07.451Z,977.94
2022-09-07T09:44:07.465Z,977.97
2022-09-07T09:45:08.413Z,977.92
2022-09-07T09:46:14.622Z,977.91
2022-09-07T10:04:01.451Z,977.84
2022-09-07T10:04:45.468Z,977.82
2022-09-07T10:05:44.470Z,977.79
2022-09-07T10:06:44.439Z,977.86
2022-09-07T10:07:44.438Z,977.93
2022-09-07T10:08:44.419Z,977.86
2022-09-07T10:09:44.443Z,977.81
2022-09-07T10:10:44.405Z,977.83
2022-09-07T10:12:45.407Z,977.81
2022-09-07T10:13:44.351Z,977.79
2022-09-07T10:14:44.373Z,977.78
2022-09-07T10:15:44.372Z,977.73
2022-09-07T10:16:44.315Z,977.86
2022-09-07T10:17:44.320Z,977.72
2022-09-07T10:18:44.307Z,977.72
2022-09-07T10:19:44.303Z,977.69
2022-09-07T10:20:44.276Z,977.67
2022-09-07T10:21:45.254Z,977.64
2022-09-07T10:22:46.613Z,977.70
2022-09-07T10:23:44.245Z,977.64
2022-09-07T10:24:44.234Z,977.62
2022-09-07T10:25:44.218Z,977.56
2022-09-07T10:26:45.194Z,977.57
2022-09-07T10:27:44.197Z,977.56
2022-09-07T10:29:45.155Z,977.57
2022-09-07T10:30:44.189Z,977.56
2022-09-07T10:31:44.199Z,977.64
2022-09-07T10:32:44.107Z,977.63
2022-09-07T10:34:25.372Z,977.53
2022-09-07T10:34:45.128Z,977.50
2022-09-07T10:35:44.084Z,977.57
2022-09-07T10:36:44.057Z,977.59
2022-09-07T10:37:44.057Z,977.55
2022-09-07T10:38:44.037Z,977.52
2022-09-07T10:39:44.077Z,977.50
2022-09-07T10:40:44.030Z,977.49
2022-09-07T10:41:44.035Z,977.49
2022-09-07T10:43:20.643Z,977.52
2022-09-07T10:43:44.973Z,977.50
2022-09-07T10:44:43.961Z,977.54
2022-09-07T10:45:43.963Z,977.52
2022-09-07T10:46:59.427Z,977.52
2022-09-07T10:47:44.929Z,977.50
2022-09-07T10:48:43.926Z,977.43
2022-09-07T10:50:21.914Z,977.40
2022-09-07T10:50:44.934Z,977.41
2022-09-07T10:51:43.882Z,977.35
2022-09-07T10:52:43.867Z,977.40
2022-09-07T10:53:44.888Z,977.42
2022-09-07T10:54:43.833Z,977.35
2022-09-07T10:55:43.843Z,977.36
2022-09-07T10:56:44.803Z,977.37
2022-09-07T10:57:48.763Z,977.38
2022-09-07T11:00:44.757Z,977.35
2022-09-07T11:01:43.789Z,977.35
2022-09-07T11:03:25.026Z,977.28
2022-09-07T11:03:45.173Z,977.28
2022-09-07T11:04:43.708Z,977.26
2022-09-07T11:05:43.717Z,977.26
2022-09-07T11:06:43.690Z,977.24
2022-09-07T11:07:43.660Z,977.17
2022-09-07T11:09:44.639Z,977.24
2022-09-07T11:10:43.691Z,977.19
2022-09-07T11:12:44.619Z,977.19
2022-09-07T11:14:02.070Z,977.16
2022-09-07T11:14:44.652Z,977.20
2022-09-07T11:15:43.640Z,977.18
2022-09-07T11:16:51.335Z,977.23
2022-09-07T11:17:45.868Z,977.14
2022-09-07T11:18:43.556Z,977.15
2022-09-07T11:19:43.539Z,977.15
2022-09-07T11:20:43.553Z,977.08
2022-09-07T11:21:58.756Z,977.04
2022-09-07T11:22:44.502Z,977.07
2022-09-07T11:23:43.486Z,977.06
2022-09-07T11:24:43.580Z,977.07
2022-09-07T11:25:43.480Z,977.16
2022-09-07T11:26:43.444Z,977.08
2022-09-07T11:27:43.461Z,977.11
2022-09-07T11:28:43.438Z,977.11
2022-09-07T11:29:43.424Z,977.13
2022-09-07T11:30:43.468Z,977.06
2022-09-07T11:31:43.397Z,977.04
2022-09-07T11:32:43.385Z,976.92
2022-09-07T11:34:23.888Z,976.98
2022-09-07T11:34:45.211Z,976.92
2022-09-07T11:35:43.345Z,976.85
2022-09-07T11:36:43.315Z,976.92
2022-09-07T11:37:43.318Z,976.89
2022-09-07T11:38:43.295Z,976.93
2022-09-07T11:39:44.348Z,976.91
2022-09-07T11:40:43.285Z,976.88
2022-09-07T11:41:43.270Z,976.88
2022-09-07T11:42:43.833Z,976.80
2022-09-07T11:43:43.240Z,976.89
2022-09-07T11:44:46.095Z,976.87
2022-09-07T11:45:43.210Z,976.84
2022-09-07T11:46:43.267Z,976.75
2022-09-07T11:47:43.194Z,976.79
2022-09-07T11:48:43.160Z,976.81
2022-09-07T11:49:45.409Z,976.80
2022-09-07T11:50:44.152Z,976.75
2022-09-07T11:51:43.151Z,976.76
2022-09-07T11:52:43.119Z,976.78
2022-09-07T11:53:43.126Z,976.75
2022-09-07T11:54:43.099Z,976.77
2022-09-07T11:55:43.085Z,976.73
2022-09-07T11:56:45.641Z,976.70
2022-09-07T11:57:43.054Z,976.75
2022-09-07T11:58:43.046Z,976.80
2022-09-07T11:59:43.038Z,976.78
2022-09-07T12:00:43.013Z,976.78
2022-09-07T12:01:43.003Z,976.79
2022-09-07T12:02:58.934Z,976.71
2022-09-07T12:03:44.115Z,976.78
2022-09-07T12:04:43.028Z,976.73
2022-09-07T12:05:43.029Z,976.78
2022-09-07T12:06:42.934Z,976.72
2022-09-07T12:07:42.934Z,976.71
2022-09-07T12:09:03.898Z,976.69
2022-09-07T12:09:42.922Z,976.72
2022-09-07T12:10:42.897Z,976.65
2022-09-07T12:11:43.869Z,976.57
2022-09-07T12:12:42.906Z,976.56
2022-09-07T12:13:42.848Z,976.48
2022-09-07T12:14:42.831Z,976.47
2022-09-07T12:15:42.857Z,976.49
2022-09-07T12:16:43.807Z,976.52
2022-09-07T12:17:42.810Z,976.47
2022-09-07T12:18:42.781Z,976.53
2022-09-07T12:19:42.769Z,976.53
2022-09-07T12:20:43.783Z,976.48
2022-09-07T12:21:42.757Z,976.46
2022-09-07T12:22:42.722Z,976.47
2022-09-07T12:23:42.723Z,976.50
2022-09-07T12:24:42.720Z,976.49
2022-09-07T12:25:42.694Z,976.40
2022-09-07T12:26:42.695Z,976.48
2022-09-07T12:27:42.704Z,976.38
2022-09-07T12:28:42.653Z,976.46
2022-09-07T12:29:45.740Z,976.49
2022-09-07T12:30:42.639Z,976.42
2022-09-07T12:31:57.268Z,976.32
2022-09-07T12:32:59.030Z,976.34
2022-09-07T12:33:43.609Z,976.42
2022-09-07T12:34:42.599Z,976.35
2022-09-07T12:35:44.618Z,976.26
2022-09-07T12:36:43.561Z,976.25
2022-09-07T12:37:42.565Z,976.25
2022-09-07T12:38:42.537Z,976.14
2022-09-07T12:39:42.625Z,976.16
2022-09-07T12:40:42.538Z,976.07
2022-09-07T12:41:42.520Z,976.01
2022-09-07T12:42:42.479Z,976.03
2022-09-07T12:43:42.492Z,975.97
2022-09-07T12:44:42.471Z,975.86
2022-09-07T12:45:42.535Z,975.86
2022-09-07T12:46:42.470Z,975.83
2022-09-07T12:47:43.430Z,975.84
2022-09-07T12:48:43.413Z,975.67
2022-09-07T12:49:42.476Z,975.64
2022-09-07T12:50:42.534Z,975.85
2022-09-07T12:52:43.384Z,975.66
2022-09-07T12:53:42.375Z,975.71
2022-09-07T12:54:42.351Z,975.65
2022-09-07T12:56:43.892Z,975.62
2022-09-07T12:57:42.330Z,975.60
2022-09-07T12:58:42.314Z,975.45
2022-09-07T12:59:42.311Z,975.38
2022-09-07T13:00:42.308Z,975.35
2022-09-07T13:01:42.402Z,975.13
2022-09-07T13:02:42.350Z,975.34
2022-09-07T13:03:51.724Z,975.27
2022-09-07T13:04:43.257Z,974.98
2022-09-07T13:05:42.237Z,975.21
2022-09-07T13:07:43.226Z,975.22
2022-09-07T13:08:42.207Z,975.14
2022-09-07T13:09:42.190Z,975.13
2022-09-07T13:10:42.198Z,975.02
2022-09-07T13:11:42.198Z,974.98
2022-09-07T13:12:58.065Z,974.95
2022-09-07T13:14:43.875Z,974.94
2022-09-07T13:15:42.170Z,974.97
2022-09-07T13:17:43.098Z,974.88
2022-09-07T13:18:42.093Z,974.86
2022-09-07T13:19:42.090Z,974.87
2022-09-07T13:20:43.063Z,974.92
2022-09-07T13:21:42.071Z,974.83
2022-09-07T13:22:42.055Z,974.77
2022-09-07T13:23:42.042Z,974.78
2022-09-07T13:24:49.257Z,974.75
2022-09-07T13:25:43.009Z,974.74
2022-09-07T13:26:42.020Z,974.73
2022-09-07T13:27:43.490Z,974.77
2022-09-07T13:28:41.979Z,974.94
2022-09-07T13:29:41.985Z,974.85
2022-09-07T13:30:42.546Z,974.83
2022-09-07T13:31:41.955Z,974.72
2022-09-07T13:33:42.947Z,975.03
2022-09-07T13:34:41.960Z,975.11